Time,TemperatureF,DewpointF,PressureIn,WindDirection,WindDirectionDegrees,WindSpeedMPH,WindSpeedGustMPH,Humidity,HourlyPrecipIn,Conditions,Clouds,dailyrainin,SoftwareType,DateUTC
2013-06-10 00:02:00,66.4,65.2,29.23,SSE,167,0.0,1.0,96,0.08,,---,0.00,VWS V14.00,2013-06-10 05:02:00,
2013-06-10 00:07:00,66.2,65.0,29.23,SSE,167,0.0,1.0,96,0.00,,---,0.00,VWS V14.00,2013-06-10 05:07:00,
2013-06-10 00:12:00,66.2,65.0,29.23,SSE,167,0.0,1.0,96,0.00,,---,0.00,VWS V14.00,2013-06-10 05:12:00,
2013-06-10 00:17:00,66.2,65.0,29.23,SSE,167,0.0,1.0,96,0.00,,---,0.00,VWS V14.00,2013-06-10 05:17:00,
2013-06-10 00:22:00,66.0,64.8,29.23,WSW,249,0.0,1.0,96,0.00,,---,0.00,VWS V14.00,2013-06-10 05:22:00,
2013-06-10 00:27:00,66.0,64.8,29.23,WSW,249,0.0,1.0,96,0.00,,---,0.00,VWS V14.00,2013-06-10 05:27:00,
2013-06-10 00:32:00,66.0,64.8,29.23,West,265,0.0,1.0,96,0.00,,---,0.00,VWS V14.00,2013-06-10 05:32:00,
2013-06-10 00:37:00,65.8,64.7,29.21,West,270,0.0,1.0,96,0.00,,---,0.00,VWS V14.00,2013-06-10 05:37:00,
2013-06-10 00:42:00,65.8,64.7,29.21,West,281,0.0,1.0,96,0.00,,---,0.00,VWS V14.00,2013-06-10 05:42:00,
2013-06-10 00:47:00,65.8,64.7,29.21,WSW,252,0.0,1.0,96,0.00,,---,0.00,VWS V14.00,2013-06-10 05:47:00,
2013-06-10 00:52:00,65.8,64.7,29.21,West,268,0.0,1.0,96,0.00,,---,0.00,VWS V14.00,2013-06-10 05:52:00,
2013-06-10 00:57:00,65.8,64.7,29.21,West,268,0.0,1.0,96,0.00,,---,0.00,VWS V14.00,2013-06-10 05:57:00,
2013-06-10 01:02:00,65.8,64.7,29.21,West,264,0.0,1.0,96,0.00,,---,0.00,VWS V14.00,2013-06-10 06:02:00,
2013-06-10 01:07:00,65.8,64.7,29.21,West,264,0.0,1.0,96,0.00,,---,0.00,VWS V14.00,2013-06-10 06:07:00,
2013-06-10 01:12:00,65.8,64.7,29.21,West,271,0.0,1.0,96,0.00,,---,0.00,VWS V14.00,2013-06-10 06:12:00,
2013-06-10 01:17:00,65.7,64.8,29.21,West,271,0.0,1.0,97,0.00,,---,0.00,VWS V14.00,2013-06-10 06:17:00,
2013-06-10 01:22:00,65.7,64.8,29.21,West,265,0.0,1.0,97,0.00,,---,0.00,VWS V14.00,2013-06-10 06:22:00,
2013-06-10 01:27:00,65.7,64.8,29.21,WSW,245,0.0,1.0,97,0.00,,---,0.00,VWS V14.00,2013-06-10 06:27:00,
2013-06-10 01:32:00,65.7,64.8,29.21,West,264,0.0,1.0,97,0.00,,---,0.00,VWS V14.00,2013-06-10 06:32:00,
2013-06-10 01:37:00,65.7,64.8,29.21,West,271,0.0,1.0,97,0.00,,---,0.00,VWS V14.00,2013-06-10 06:37:00,
2013-06-10 01:42:00,65.7,64.8,29.21,WSW,249,0.0,1.0,97,0.00,,---,0.00,VWS V14.00,2013-06-10 06:42:00,
2013-06-10 01:47:00,65.7,64.8,29.21,West,269,0.0,1.0,97,0.00,,---,0.00,VWS V14.00,2013-06-10 06:47:00,
2013-06-10 01:52:00,65.7,64.8,29.21,West,267,0.0,1.0,97,0.00,,---,0.00,VWS V14.00,2013-06-10 06:52:00,
2013-06-10 01:57:00,65.7,64.8,29.21,West,264,0.0,1.0,97,0.00,,---,0.00,VWS V14.00,2013-06-10 06:57:00,
2013-06-10 02:02:00,65.7,64.8,29.21,WSW,242,0.0,1.0,97,0.00,,---,0.00,VWS V14.00,2013-06-10 07:02:00,
2013-06-10 02:07:00,65.5,64.6,29.21,SW,226,0.0,1.0,97,0.00,,---,0.00,VWS V14.00,2013-06-10 07:07:00,
2013-06-10 02:12:00,65.5,64.6,29.21,West,266,0.0,1.0,97,0.00,,---,0.00,VWS V14.00,2013-06-10 07:12:00,
2013-06-10 02:17:00,65.5,64.6,29.18,West,259,0.0,1.0,97,0.00,,---,0.00,VWS V14.00,2013-06-10 07:17:00,
2013-06-10 02:22:00,65.3,64.4,29.18,WSW,253,0.0,1.0,97,0.00,,---,0.00,VWS V14.00,2013-06-10 07:22:00,
2013-06-10 02:27:00,65.3,64.4,29.18,WSW,253,0.0,1.0,97,0.00,,---,0.00,VWS V14.00,2013-06-10 07:27:00,
2013-06-10 02:32:00,65.1,64.2,29.18,WSW,253,0.0,1.0,97,0.00,,---,0.00,VWS V14.00,2013-06-10 07:32:00,
2013-06-10 02:37:00,65.1,64.2,29.18,WSW,253,0.0,1.0,97,0.00,,---,0.00,VWS V14.00,2013-06-10 07:37:00,
2013-06-10 02:42:00,65.1,64.2,29.18,West,265,0.0,1.0,97,0.00,,---,0.00,VWS V14.00,2013-06-10 07:42:00,
2013-06-10 02:47:00,65.3,64.4,29.18,SW,214,0.0,1.0,97,0.00,,---,0.00,VWS V14.00,2013-06-10 07:47:00,
2013-06-10 02:52:00,65.3,64.4,29.18,SW,214,0.0,1.0,97,0.00,,---,0.00,VWS V14.00,2013-06-10 07:52:00,
2013-06-10 02:57:00,65.3,64.4,29.21,West,273,0.0,1.0,97,0.00,,---,0.00,VWS V14.00,2013-06-10 07:57:00,
2013-06-10 03:02:00,65.3,64.4,29.21,West,264,0.0,1.0,97,0.00,,---,0.00,VWS V14.00,2013-06-10 08:02:00,
2013-06-10 03:07:00,65.3,64.4,29.21,WSW,258,4.0,5.8,97,0.00,,---,0.00,VWS V14.00,2013-06-10 08:07:00,
2013-06-10 03:12:00,65.5,64.9,29.21,WSW,256,0.0,1.0,98,0.00,,---,0.00,VWS V14.00,2013-06-10 08:12:00,
2013-06-10 03:17:00,65.7,65.1,29.21,SW,230,0.0,1.0,98,0.00,,---,0.00,VWS V14.00,2013-06-10 08:17:00,
2013-06-10 03:22:00,65.7,65.1,29.21,WSW,255,0.0,1.0,98,0.00,,---,0.00,VWS V14.00,2013-06-10 08:22:00,
2013-06-10 03:27:00,65.7,65.1,29.21,West,263,0.0,1.0,98,0.00,,---,0.00,VWS V14.00,2013-06-10 08:27:00,
2013-06-10 03:32:00,65.8,65.3,29.21,WSW,245,0.0,1.0,98,0.00,,---,0.00,VWS V14.00,2013-06-10 08:32:00,
2013-06-10 03:37:00,65.8,65.3,29.21,West,266,0.0,1.0,98,0.00,,---,0.00,VWS V14.00,2013-06-10 08:37:00,
2013-06-10 03:42:00,65.8,65.3,29.21,West,264,0.0,1.0,98,0.00,,---,0.00,VWS V14.00,2013-06-10 08:42:00,
2013-06-10 03:47:00,65.8,65.3,29.21,West,266,0.0,1.0,98,0.00,,---,0.00,VWS V14.00,2013-06-10 08:47:00,
2013-06-10 03:52:00,65.8,65.3,29.21,WSW,257,0.0,1.0,98,0.00,,---,0.00,VWS V14.00,2013-06-10 08:52:00,
2013-06-10 03:57:00,66.0,65.4,29.21,WSW,243,0.0,1.0,98,0.00,,---,0.00,VWS V14.00,2013-06-10 08:57:00,
2013-06-10 04:02:00,66.0,65.4,29.21,West,274,0.0,1.0,98,0.00,,---,0.00,VWS V14.00,2013-06-10 09:02:00,
2013-06-10 04:07:00,66.0,65.4,29.21,West,272,0.0,1.0,98,0.00,,---,0.00,VWS V14.00,2013-06-10 09:07:00,
2013-06-10 04:12:00,66.2,65.6,29.21,West,266,0.0,1.0,98,0.00,,---,0.00,VWS V14.00,2013-06-10 09:12:00,
2013-06-10 04:17:00,66.2,65.6,29.21,West,276,0.0,1.0,98,0.00,,---,0.00,VWS V14.00,2013-06-10 09:17:00,
2013-06-10 04:22:00,66.2,65.6,29.21,SW,215,0.0,5.8,98,0.00,,---,0.00,VWS V14.00,2013-06-10 09:22:00,
2013-06-10 04:27:00,66.2,65.6,29.21,West,280,0.0,1.0,98,0.00,,---,0.00,VWS V14.00,2013-06-10 09:27:00,
2013-06-10 04:32:00,66.2,65.6,29.21,West,263,0.0,1.0,98,0.00,,---,0.00,VWS V14.00,2013-06-10 09:32:00,
2013-06-10 04:37:00,66.2,65.6,29.21,WSW,246,0.0,1.0,98,0.00,,---,0.00,VWS V14.00,2013-06-10 09:37:00,
2013-06-10 04:42:00,66.2,65.6,29.21,WSW,244,0.0,1.0,98,0.00,,---,0.00,VWS V14.00,2013-06-10 09:42:00,
2013-06-10 04:47:00,66.4,65.8,29.21,West,261,0.0,1.0,98,0.00,,---,0.00,VWS V14.00,2013-06-10 09:47:00,
2013-06-10 04:52:00,66.4,65.8,29.21,NW,305,6.0,8.2,98,0.00,,---,0.00,VWS V14.00,2013-06-10 09:52:00,
2013-06-10 04:57:00,66.4,65.8,29.21,WSW,253,0.0,1.0,98,0.00,,---,0.00,VWS V14.00,2013-06-10 09:57:00,
2013-06-10 05:02:00,66.4,65.8,29.21,West,268,0.0,1.0,98,0.00,,---,0.00,VWS V14.00,2013-06-10 10:02:00,
2013-06-10 05:07:00,66.4,65.8,29.21,WSW,250,0.0,1.0,98,0.00,,---,0.00,VWS V14.00,2013-06-10 10:07:00,
2013-06-10 05:12:00,66.4,65.8,29.21,WSW,250,0.0,5.8,98,0.00,,---,0.00,VWS V14.00,2013-06-10 10:12:00,
2013-06-10 05:17:00,66.4,65.8,29.21,WSW,239,0.0,1.0,98,0.00,,---,0.00,VWS V14.00,2013-06-10 10:17:00,
2013-06-10 05:22:00,66.4,65.8,29.21,West,271,0.0,1.0,98,0.00,,---,0.00,VWS V14.00,2013-06-10 10:22:00,
2013-06-10 05:27:00,66.4,65.8,29.21,West,266,0.0,1.0,98,0.00,,---,0.00,VWS V14.00,2013-06-10 10:27:00,
2013-06-10 05:32:00,66.4,65.8,29.21,WSW,238,8.7,11.5,98,0.00,,---,0.00,VWS V14.00,2013-06-10 10:32:00,
2013-06-10 05:37:00,66.4,65.8,29.21,West,281,0.0,1.0,98,0.00,,---,0.00,VWS V14.00,2013-06-10 10:37:00,
2013-06-10 05:42:00,66.4,65.8,29.21,West,281,0.0,1.0,98,0.00,,---,0.00,VWS V14.00,2013-06-10 10:42:00,
2013-06-10 05:47:00,66.4,66.1,29.21,WSW,246,6.0,8.2,99,0.00,,---,0.00,VWS V14.00,2013-06-10 10:47:00,
2013-06-10 05:52:00,66.4,66.1,29.21,West,281,4.0,5.8,99,0.00,,---,0.00,VWS V14.00,2013-06-10 10:52:00,
2013-06-10 05:57:00,66.4,66.1,29.21,West,264,0.0,1.0,99,0.00,,---,0.00,VWS V14.00,2013-06-10 10:57:00,
2013-06-10 06:02:00,66.4,66.1,29.21,WSW,252,0.0,1.0,99,0.00,,---,0.00,VWS V14.00,2013-06-10 11:02:00,
2013-06-10 06:07:00,66.4,66.1,29.21,West,260,0.0,1.0,99,0.00,,---,0.00,VWS V14.00,2013-06-10 11:07:00,
2013-06-10 06:12:00,66.4,66.1,29.21,West,263,0.0,1.0,99,0.00,,---,0.00,VWS V14.00,2013-06-10 11:12:00,
2013-06-10 06:17:00,66.6,66.3,29.21,WSW,237,0.0,1.0,99,0.00,,---,0.00,VWS V14.00,2013-06-10 11:17:00,
2013-06-10 06:22:00,66.6,66.3,29.21,SSW,196,0.0,1.0,99,0.00,,---,0.00,VWS V14.00,2013-06-10 11:22:00,
2013-06-10 06:27:00,66.6,66.3,29.21,West,261,0.0,1.0,99,0.00,,---,0.00,VWS V14.00,2013-06-10 11:27:00,
2013-06-10 06:32:00,66.6,66.3,29.23,SW,232,0.0,1.0,99,0.00,,---,0.00,VWS V14.00,2013-06-10 11:32:00,
2013-06-10 06:37:00,66.6,66.3,29.23,SW,235,0.0,1.0,99,0.00,,---,0.00,VWS V14.00,2013-06-10 11:37:00,
2013-06-10 06:42:00,66.6,66.3,29.23,SW,231,0.0,1.0,99,0.00,,---,0.00,VWS V14.00,2013-06-10 11:42:00,
2013-06-10 06:47:00,66.6,66.3,29.21,WSW,250,0.0,1.0,99,0.00,,---,0.00,VWS V14.00,2013-06-10 11:47:00,
2013-06-10 06:52:00,66.7,66.4,29.21,West,264,0.0,1.0,99,0.00,,---,0.00,VWS V14.00,2013-06-10 11:52:00,
2013-06-10 06:57:00,66.7,66.4,29.21,West,270,0.0,1.0,99,0.00,,---,0.00,VWS V14.00,2013-06-10 11:57:00,
2013-06-10 07:02:00,66.9,66.6,29.23,SW,223,0.0,1.0,99,0.00,,---,0.00,VWS V14.00,2013-06-10 12:02:00,
2013-06-10 07:07:00,66.9,66.6,29.23,SW,227,0.0,1.0,99,0.00,,---,0.00,VWS V14.00,2013-06-10 12:07:00,
2013-06-10 07:12:00,66.9,66.6,29.23,West,259,0.0,1.0,99,0.00,,---,0.00,VWS V14.00,2013-06-10 12:12:00,
2013-06-10 07:17:00,66.9,66.6,29.23,WSW,247,0.0,1.0,99,0.00,,---,0.00,VWS V14.00,2013-06-10 12:17:00,
2013-06-10 07:22:00,67.1,66.8,29.23,WSW,245,0.0,1.0,99,0.00,,---,0.00,VWS V14.00,2013-06-10 12:22:00,
2013-06-10 07:27:00,67.1,66.8,29.23,WSW,256,0.0,1.0,99,0.00,,---,0.00,VWS V14.00,2013-06-10 12:27:00,
2013-06-10 07:32:00,67.3,67.0,29.23,West,260,0.0,1.0,99,0.00,,---,0.00,VWS V14.00,2013-06-10 12:32:00,
2013-06-10 07:37:00,67.6,67.3,29.23,WNW,293,0.0,1.0,99,0.00,,---,0.00,VWS V14.00,2013-06-10 12:37:00,
2013-06-10 07:42:00,67.6,67.3,29.23,WSW,242,0.0,1.0,99,0.00,,---,0.00,VWS V14.00,2013-06-10 12:42:00,
2013-06-10 07:47:00,68.0,67.4,29.23,SW,226,3.4,5.0,98,0.00,,---,0.00,VWS V14.00,2013-06-10 12:47:00,
2013-06-10 07:52:00,67.8,67.5,29.23,West,276,4.0,5.8,99,0.00,,---,0.00,VWS V14.00,2013-06-10 12:52:00,
2013-06-10 07:57:00,67.8,67.5,29.23,West,275,0.0,1.0,99,0.00,,---,0.00,VWS V14.00,2013-06-10 12:57:00,
2013-06-10 08:02:00,67.8,67.5,29.26,SSW,212,0.0,1.0,99,0.00,,---,0.00,VWS V14.00,2013-06-10 13:02:00,
2013-06-10 08:07:00,67.8,67.5,29.26,SSE,168,0.0,1.0,99,0.00,,---,0.00,VWS V14.00,2013-06-10 13:07:00,
2013-06-10 08:12:00,67.8,67.5,29.26,WSW,254,0.0,5.8,99,0.00,,---,0.00,VWS V14.00,2013-06-10 13:12:00,
2013-06-10 08:17:00,67.8,67.5,29.26,SW,222,0.0,1.0,99,0.00,,---,0.00,VWS V14.00,2013-06-10 13:17:00,
2013-06-10 08:22:00,67.8,67.5,29.23,SW,222,0.0,1.0,99,0.00,,---,0.00,VWS V14.00,2013-06-10 13:22:00,
2013-06-10 08:27:00,67.8,67.5,29.23,South,178,0.0,1.0,99,0.00,,---,0.00,VWS V14.00,2013-06-10 13:27:00,
2013-06-10 08:32:00,68.0,67.7,29.26,South,178,0.0,1.0,99,0.00,,---,0.00,VWS V14.00,2013-06-10 13:32:00,
2013-06-10 08:37:00,68.2,67.9,29.26,SSE,151,4.7,6.6,99,0.00,,---,0.00,VWS V14.00,2013-06-10 13:37:00,
2013-06-10 08:42:00,68.4,68.1,29.26,SSE,147,4.7,6.6,99,0.00,,---,0.00,VWS V14.00,2013-06-10 13:42:00,
2013-06-10 08:47:00,68.5,68.2,29.26,South,182,4.0,6.6,99,0.00,,---,0.00,VWS V14.00,2013-06-10 13:47:00,
2013-06-10 08:52:00,68.5,68.2,29.23,South,182,0.0,1.0,99,0.00,,---,0.00,VWS V14.00,2013-06-10 13:52:00,
2013-06-10 08:57:00,68.7,68.4,29.23,SSE,163,0.0,1.0,99,0.00,,---,0.00,VWS V14.00,2013-06-10 13:57:00,
2013-06-10 09:02:00,68.7,68.4,29.23,SSE,155,0.0,5.8,99,0.00,,---,0.00,VWS V14.00,2013-06-10 14:02:00,
2013-06-10 09:07:00,68.9,68.6,29.23,SSE,168,0.0,6.6,99,0.00,,---,0.00,VWS V14.00,2013-06-10 14:07:00,
2013-06-10 09:12:00,69.1,68.8,29.23,South,177,4.0,5.8,99,0.00,,---,0.00,VWS V14.00,2013-06-10 14:12:00,
2013-06-10 09:17:00,69.1,68.8,29.23,South,179,0.0,1.0,99,0.00,,---,0.00,VWS V14.00,2013-06-10 14:17:00,
2013-06-10 09:22:00,69.1,68.8,29.23,South,179,0.0,1.0,99,0.00,,---,0.00,VWS V14.00,2013-06-10 14:22:00,
2013-06-10 09:27:00,69.1,68.8,29.23,South,179,0.0,1.0,99,0.00,,---,0.00,VWS V14.00,2013-06-10 14:27:00,
2013-06-10 09:32:00,68.9,68.3,29.23,South,179,0.0,1.0,98,0.00,,---,0.00,VWS V14.00,2013-06-10 14:32:00,
2013-06-10 09:37:00,68.9,68.3,29.23,South,179,0.0,1.0,98,0.00,,---,0.00,VWS V14.00,2013-06-10 14:37:00,
2013-06-10 09:42:00,68.9,68.3,29.23,SE,144,0.0,1.0,98,0.00,,---,0.00,VWS V14.00,2013-06-10 14:42:00,
2013-06-10 09:47:00,68.9,68.3,29.23,WSW,239,4.0,5.8,98,0.00,,---,0.00,VWS V14.00,2013-06-10 14:47:00,
2013-06-10 09:52:00,68.9,68.3,29.23,West,275,6.0,8.2,98,0.00,,---,0.00,VWS V14.00,2013-06-10 14:52:00,
2013-06-10 09:57:00,68.7,68.1,29.23,SSE,154,4.7,6.6,98,0.00,,---,0.00,VWS V14.00,2013-06-10 14:57:00,
2013-06-10 10:02:00,68.7,68.1,29.21,South,169,0.0,5.0,98,0.00,,---,0.00,VWS V14.00,2013-06-10 15:02:00,
2013-06-10 10:07:00,68.7,68.1,29.21,SSW,208,0.0,1.0,98,0.00,,---,0.04,VWS V14.00,2013-06-10 15:07:00,
2013-06-10 10:12:00,68.7,68.1,29.21,SSE,150,4.0,8.2,98,0.00,,---,0.04,VWS V14.00,2013-06-10 15:12:00,
2013-06-10 10:17:00,68.7,68.1,29.21,South,189,0.0,1.0,98,0.00,,---,0.04,VWS V14.00,2013-06-10 15:17:00,
2013-06-10 10:22:00,68.7,68.1,29.21,SSE,158,0.0,1.0,98,0.00,,---,0.04,VWS V14.00,2013-06-10 15:22:00,
2013-06-10 10:27:00,68.7,68.1,29.21,SSW,196,0.0,1.0,98,0.00,,---,0.04,VWS V14.00,2013-06-10 15:27:00,
2013-06-10 10:32:00,68.7,68.1,29.23,SSW,207,0.0,5.8,98,0.00,,---,0.04,VWS V14.00,2013-06-10 15:32:00,
2013-06-10 10:37:00,68.9,68.3,29.23,SSE,164,0.0,6.6,98,0.00,,---,0.04,VWS V14.00,2013-06-10 15:37:00,
2013-06-10 10:42:00,68.9,68.3,29.23,SE,146,0.0,1.0,98,0.00,,---,0.04,VWS V14.00,2013-06-10 15:42:00,
2013-06-10 10:47:00,69.4,68.8,29.23,SSE,165,4.7,6.6,98,0.00,,---,0.04,VWS V14.00,2013-06-10 15:47:00,
2013-06-10 10:52:00,69.8,69.2,29.23,SE,136,0.0,5.8,98,0.00,,---,0.04,VWS V14.00,2013-06-10 15:52:00,
2013-06-10 10:57:00,70.3,69.8,29.23,SSE,163,4.7,7.4,98,0.00,,---,0.04,VWS V14.00,2013-06-10 15:57:00,
2013-06-10 11:02:00,71.1,70.5,29.21,South,177,0.0,7.4,98,0.00,,---,0.04,VWS V14.00,2013-06-10 16:02:00,
2013-06-10 11:07:00,72.0,71.1,29.21,South,177,4.0,5.8,97,0.00,,---,0.04,VWS V14.00,2013-06-10 16:07:00,
2013-06-10 11:12:00,72.3,71.4,29.21,SW,224,0.0,5.0,97,0.00,,---,0.04,VWS V14.00,2013-06-10 16:12:00,
2013-06-10 11:17:00,72.9,72.0,29.21,WSW,237,0.0,1.0,97,0.00,,---,0.04,VWS V14.00,2013-06-10 16:17:00,
2013-06-10 11:22:00,73.2,72.3,29.21,South,180,5.4,7.4,97,0.00,,---,0.04,VWS V14.00,2013-06-10 16:22:00,
2013-06-10 11:27:00,73.4,72.5,29.21,WSW,252,0.0,1.0,97,0.00,,---,0.04,VWS V14.00,2013-06-10 16:27:00,
2013-06-10 11:32:00,73.6,72.7,29.23,SSE,158,3.4,5.0,97,0.00,,---,0.04,VWS V14.00,2013-06-10 16:32:00,
2013-06-10 11:37:00,74.1,73.2,29.23,West,277,4.0,6.6,97,0.00,,---,0.04,VWS V14.00,2013-06-10 16:37:00,
2013-06-10 11:42:00,74.7,73.4,29.23,WSW,240,4.7,10.7,96,0.00,,---,0.04,VWS V14.00,2013-06-10 16:42:00,
2013-06-10 11:47:00,74.7,73.4,29.23,WSW,252,0.0,8.2,96,0.00,,---,0.04,VWS V14.00,2013-06-10 16:47:00,
2013-06-10 11:52:00,74.8,73.6,29.23,NW,304,7.4,9.9,96,0.00,,---,0.04,VWS V14.00,2013-06-10 16:52:00,
2013-06-10 11:57:00,75.2,73.4,29.23,West,261,8.1,10.7,94,0.00,,---,0.04,VWS V14.00,2013-06-10 16:57:00,
2013-06-10 12:02:00,74.7,72.5,29.23,WNW,301,3.4,5.0,93,0.00,,---,0.04,VWS V14.00,2013-06-10 17:02:00,
2013-06-10 12:07:00,74.7,71.9,29.23,WNW,289,0.0,1.0,91,0.00,,---,0.04,VWS V14.00,2013-06-10 17:07:00,
2013-06-10 12:12:00,74.8,71.7,29.23,SSW,211,0.0,1.0,90,0.00,,---,0.04,VWS V14.00,2013-06-10 17:12:00,
2013-06-10 12:17:00,75.9,72.1,29.23,West,279,5.4,7.4,88,0.00,,---,0.04,VWS V14.00,2013-06-10 17:17:00,
2013-06-10 12:23:00,76.3,72.1,29.23,West,279,8.1,10.7,87,0.00,,---,0.04,VWS V14.00,2013-06-10 17:23:00,
2013-06-10 12:28:00,77.2,72.0,29.23,SW,218,4.7,6.6,84,0.00,,---,0.04,VWS V14.00,2013-06-10 17:28:00,
2013-06-10 12:32:00,77.2,70.9,29.23,WNW,292,7.4,9.9,81,0.00,,---,0.04,VWS V14.00,2013-06-10 17:32:00,
2013-06-10 12:37:00,77.7,70.7,29.21,WSW,251,6.0,11.5,79,0.00,,---,0.04,VWS V14.00,2013-06-10 17:37:00,
2013-06-10 12:42:00,78.1,69.5,29.21,West,274,4.7,6.6,75,0.00,,---,0.04,VWS V14.00,2013-06-10 17:42:00,
2013-06-10 12:47:00,79.2,69.4,29.21,West,278,8.1,10.7,72,0.00,,---,0.04,VWS V14.00,2013-06-10 17:47:00,
2013-06-10 12:52:00,79.2,68.1,29.21,WNW,287,3.4,11.5,69,0.00,,---,0.04,VWS V14.00,2013-06-10 17:52:00,
2013-06-10 12:57:00,79.2,66.8,29.21,NW,314,4.0,5.8,66,0.00,,---,0.04,VWS V14.00,2013-06-10 17:57:00,
2013-06-10 13:02:00,79.5,67.6,29.21,West,267,5.4,7.4,67,0.00,,---,0.04,VWS V14.00,2013-06-10 18:02:00,
2013-06-10 13:07:00,79.9,67.5,29.21,West,271,0.0,5.8,66,0.00,,---,0.04,VWS V14.00,2013-06-10 18:07:00,
2013-06-10 13:13:00,79.5,66.3,29.21,West,264,0.0,1.0,64,0.00,,---,0.04,VWS V14.00,2013-06-10 18:13:00,
2013-06-10 13:17:00,79.3,66.6,29.21,West,279,5.4,7.4,65,0.00,,---,0.04,VWS V14.00,2013-06-10 18:17:00,
2013-06-10 13:22:00,79.9,63.8,29.21,WSW,246,8.7,11.5,58,0.00,,---,0.04,VWS V14.00,2013-06-10 18:22:00,
2013-06-10 13:27:00,79.5,62.0,29.21,North,353,10.7,18.3,55,0.00,,---,0.04,VWS V14.00,2013-06-10 18:27:00,
2013-06-10 13:32:00,79.5,62.5,29.21,NW,320,7.4,15.5,56,0.00,,---,0.04,VWS V14.00,2013-06-10 18:32:00,
2013-06-10 13:38:00,80.2,62.6,29.21,NW,311,15.1,19.1,55,0.00,,---,0.04,VWS V14.00,2013-06-10 18:38:00,
2013-06-10 13:43:00,80.8,63.1,29.21,West,263,8.7,11.5,55,0.00,,---,0.04,VWS V14.00,2013-06-10 18:43:00,
2013-06-10 13:47:00,80.6,61.4,29.21,WSW,254,8.1,10.7,52,0.00,,---,0.04,VWS V14.00,2013-06-10 18:47:00,
2013-06-10 13:53:00,79.9,61.2,29.21,NW,314,8.7,11.5,53,0.00,,---,0.04,VWS V14.00,2013-06-10 18:53:00,
2013-06-10 13:57:00,79.9,61.2,29.21,West,259,4.7,6.6,53,0.00,,---,0.04,VWS V14.00,2013-06-10 18:57:00,
2013-06-10 14:03:00,79.3,59.7,29.21,WNW,301,8.7,11.5,51,0.00,,---,0.04,VWS V14.00,2013-06-10 19:03:00,
2013-06-10 14:08:00,79.5,59.8,29.21,SW,227,5.4,7.4,51,0.00,,---,0.04,VWS V14.00,2013-06-10 19:08:00,
2013-06-10 14:13:00,79.2,60.0,29.21,WSW,249,3.4,10.7,52,0.00,,---,0.04,VWS V14.00,2013-06-10 19:13:00,
2013-06-10 14:18:00,79.2,60.0,29.21,NW,321,4.0,9.9,52,0.00,,---,0.04,VWS V14.00,2013-06-10 19:18:00,
2013-06-10 14:23:00,80.4,61.7,29.21,WNW,301,4.0,12.3,53,0.00,,---,0.04,VWS V14.00,2013-06-10 19:23:00,
2013-06-10 14:28:00,80.2,62.1,29.21,West,267,5.4,7.4,54,0.00,,---,0.04,VWS V14.00,2013-06-10 19:28:00,
2013-06-10 14:33:00,79.9,61.2,29.21,SSW,195,6.0,8.2,53,0.00,,---,0.04,VWS V14.00,2013-06-10 19:33:00,
2013-06-10 14:38:00,80.4,61.7,29.21,WNW,285,5.4,7.4,53,0.00,,---,0.04,VWS V14.00,2013-06-10 19:38:00,
2013-06-10 14:43:00,80.8,61.5,29.21,NNW,338,8.1,10.7,52,0.00,,---,0.04,VWS V14.00,2013-06-10 19:43:00,
2013-06-10 14:48:00,81.1,62.4,29.21,WNW,294,4.7,8.2,53,0.00,,---,0.04,VWS V14.00,2013-06-10 19:48:00,
2013-06-10 14:53:00,80.8,59.9,29.21,WNW,286,8.7,15.9,49,0.00,,---,0.04,VWS V14.00,2013-06-10 19:53:00,
2013-06-10 14:58:00,81.1,60.8,29.21,NW,306,6.7,9.1,50,0.00,,---,0.04,VWS V14.00,2013-06-10 19:58:00,
2013-06-10 15:03:00,81.0,60.6,29.21,West,281,5.4,7.4,50,0.00,,---,0.04,VWS V14.00,2013-06-10 20:03:00,
2013-06-10 15:08:00,81.5,61.7,29.21,WSW,250,4.0,7.4,51,0.00,,---,0.04,VWS V14.00,2013-06-10 20:08:00,
2013-06-10 15:13:00,81.5,61.7,29.21,WNW,298,8.7,14.7,51,0.00,,---,0.04,VWS V14.00,2013-06-10 20:13:00,
2013-06-10 15:18:00,81.3,59.8,29.21,West,268,8.1,19.9,48,0.00,,---,0.04,VWS V14.00,2013-06-10 20:18:00,
2013-06-10 15:23:00,81.1,59.6,29.21,WSW,248,8.1,10.7,48,0.00,,---,0.04,VWS V14.00,2013-06-10 20:23:00,
2013-06-10 15:28:00,81.1,59.6,29.21,NW,308,5.4,12.3,48,0.00,,---,0.04,VWS V14.00,2013-06-10 20:28:00,
2013-06-10 15:33:00,81.1,59.6,29.21,West,266,7.4,9.9,48,0.00,,---,0.04,VWS V14.00,2013-06-10 20:33:00,
2013-06-10 15:38:00,81.1,60.2,29.21,West,278,5.4,13.9,49,0.00,,---,0.04,VWS V14.00,2013-06-10 20:38:00,
2013-06-10 15:43:00,81.1,59.6,29.21,West,262,6.0,10.7,48,0.00,,---,0.04,VWS V14.00,2013-06-10 20:43:00,
2013-06-10 15:48:00,81.3,59.8,29.21,WNW,286,6.0,8.2,48,0.00,,---,0.04,VWS V14.00,2013-06-10 20:48:00,
2013-06-10 15:53:00,81.5,61.1,29.21,NNW,344,10.7,13.9,50,0.00,,---,0.04,VWS V14.00,2013-06-10 20:53:00,
2013-06-10 15:58:00,81.3,59.2,29.21,WNW,287,3.4,5.0,47,0.00,,---,0.04,VWS V14.00,2013-06-10 20:58:00,
2013-06-10 16:03:00,81.1,59.0,29.21,WNW,284,8.1,10.7,47,0.00,,---,0.04,VWS V14.00,2013-06-10 21:03:00,
2013-06-10 16:08:00,81.1,59.6,29.21,WNW,289,4.0,11.5,48,0.00,,---,0.04,VWS V14.00,2013-06-10 21:08:00,
2013-06-10 16:13:00,81.1,59.0,29.21,WNW,282,9.4,12.3,47,0.00,,---,0.04,VWS V14.00,2013-06-10 21:13:00,
2013-06-10 16:18:00,81.1,59.0,29.21,WNW,285,5.4,16.7,47,0.00,,---,0.04,VWS V14.00,2013-06-10 21:18:00,
2013-06-10 16:23:00,81.5,59.9,29.21,NW,321,4.0,6.6,48,0.00,,---,0.04,VWS V14.00,2013-06-10 21:23:00,
2013-06-10 16:28:00,81.3,60.9,29.21,West,270,0.0,5.0,50,0.00,,---,0.04,VWS V14.00,2013-06-10 21:28:00,
2013-06-10 16:33:00,81.3,59.8,29.21,WSW,252,9.4,12.3,48,0.00,,---,0.04,VWS V14.00,2013-06-10 21:33:00,
2013-06-10 16:38:00,81.5,59.9,29.21,WSW,252,6.0,8.2,48,0.00,,---,0.04,VWS V14.00,2013-06-10 21:38:00,
2013-06-10 16:43:00,81.5,59.9,29.21,SSW,203,0.0,5.8,48,0.00,,---,0.04,VWS V14.00,2013-06-10 21:43:00,
2013-06-10 16:48:00,81.7,60.1,29.21,NW,314,6.0,10.7,48,0.00,,---,0.04,VWS V14.00,2013-06-10 21:48:00,
2013-06-10 16:53:00,81.7,58.3,29.21,NW,312,19.1,24.0,45,0.00,,---,0.04,VWS V14.00,2013-06-10 21:53:00,
2013-06-10 16:58:00,81.3,58.6,29.21,West,273,4.0,7.4,46,0.00,,---,0.04,VWS V14.00,2013-06-10 21:58:00,
2013-06-10 17:03:00,81.3,59.2,29.21,WNW,289,8.1,10.7,47,0.00,,---,0.04,VWS V14.00,2013-06-10 22:03:00,
2013-06-10 17:08:00,81.1,59.6,29.21,NW,305,3.4,9.9,48,0.00,,---,0.04,VWS V14.00,2013-06-10 22:08:00,
2013-06-10 17:13:00,81.3,59.2,29.21,West,267,5.4,12.3,47,0.00,,---,0.04,VWS V14.00,2013-06-10 22:13:00,
2013-06-10 17:18:00,81.7,58.9,29.21,WSW,241,9.4,12.3,46,0.00,,---,0.04,VWS V14.00,2013-06-10 22:18:00,
2013-06-10 17:23:00,81.7,58.9,29.21,West,279,5.4,7.4,46,0.00,,---,0.04,VWS V14.00,2013-06-10 22:23:00,
2013-06-10 17:28:00,81.7,58.3,29.21,WNW,296,4.0,5.8,45,0.00,,---,0.04,VWS V14.00,2013-06-10 22:28:00,
2013-06-10 17:33:00,81.3,60.3,29.21,WNW,300,4.7,6.6,49,0.00,,---,0.04,VWS V14.00,2013-06-10 22:33:00,
2013-06-10 17:38:00,80.6,60.8,29.21,West,265,5.4,7.4,51,0.00,,---,0.04,VWS V14.00,2013-06-10 22:38:00,
2013-06-10 17:43:00,80.4,61.2,29.21,WNW,300,0.0,1.0,52,0.00,,---,0.04,VWS V14.00,2013-06-10 22:43:00,
2013-06-10 17:48:00,80.1,61.4,29.21,West,268,0.0,5.0,53,0.00,,---,0.04,VWS V14.00,2013-06-10 22:48:00,
2013-06-10 17:53:00,79.2,61.1,29.21,West,261,3.4,6.6,54,0.00,,---,0.04,VWS V14.00,2013-06-10 22:53:00,
2013-06-10 17:58:00,78.6,61.1,29.21,WNW,289,6.0,8.2,55,0.00,,---,0.04,VWS V14.00,2013-06-10 22:58:00,
2013-06-10 18:03:00,78.8,61.8,29.21,WSW,242,0.0,7.4,56,0.00,,---,0.04,VWS V14.00,2013-06-10 23:03:00,
2013-06-10 18:08:00,79.2,62.6,29.21,WNW,285,3.4,5.0,57,0.00,,---,0.04,VWS V14.00,2013-06-10 23:08:00,
2013-06-10 18:13:00,79.5,62.0,29.21,NNW,333,4.7,6.6,55,0.00,,---,0.04,VWS V14.00,2013-06-10 23:13:00,
2013-06-10 18:18:00,80.2,59.9,29.21,West,265,4.0,6.6,50,0.00,,---,0.04,VWS V14.00,2013-06-10 23:18:00,
2013-06-10 18:23:00,80.2,59.9,29.21,North,357,0.0,5.8,50,0.00,,---,0.04,VWS V14.00,2013-06-10 23:23:00,
2013-06-10 18:28:00,80.2,59.9,29.21,WNW,292,0.0,1.0,50,0.00,,---,0.04,VWS V14.00,2013-06-10 23:28:00,
2013-06-10 18:33:00,80.1,61.4,29.21,WSW,257,0.0,1.0,53,0.00,,---,0.04,VWS V14.00,2013-06-10 23:33:00,
2013-06-10 18:38:00,80.1,61.9,29.21,WNW,289,0.0,7.4,54,0.00,,---,0.04,VWS V14.00,2013-06-10 23:38:00,
2013-06-10 18:43:00,79.7,61.1,29.21,NW,316,0.0,1.0,53,0.00,,---,0.04,VWS V14.00,2013-06-10 23:43:00,
2013-06-10 18:48:00,79.5,61.4,29.21,NW,324,6.0,8.2,54,0.00,,---,0.04,VWS V14.00,2013-06-10 23:48:00,
2013-06-10 18:53:00,79.5,59.8,29.21,North,1,6.0,8.2,51,0.00,,---,0.04,VWS V14.00,2013-06-10 23:53:00,
2013-06-10 18:58:00,79.5,59.8,29.23,West,278,0.0,5.8,51,0.00,,---,0.04,VWS V14.00,2013-06-10 23:58:00,
2013-06-10 19:03:00,79.3,59.7,29.23,North,9,0.0,1.0,51,0.00,,---,0.04,VWS V14.00,2013-06-11 00:03:00,
2013-06-10 19:08:00,79.3,59.7,29.23,North,6,0.0,5.8,51,0.00,,---,0.04,VWS V14.00,2013-06-11 00:08:00,
2013-06-10 19:13:00,78.8,60.8,29.23,North,6,0.0,1.0,54,0.00,,---,0.04,VWS V14.00,2013-06-11 00:13:00,
2013-06-10 19:18:00,78.4,61.0,29.23,North,4,0.0,1.0,55,0.00,,---,0.04,VWS V14.00,2013-06-11 00:18:00,
2013-06-10 19:23:00,77.9,61.5,29.23,North,4,0.0,1.0,57,0.00,,---,0.04,VWS V14.00,2013-06-11 00:23:00,
2013-06-10 19:28:00,77.4,61.4,29.23,North,2,0.0,1.0,58,0.00,,---,0.04,VWS V14.00,2013-06-11 00:28:00,
2013-06-10 19:33:00,77.0,61.6,29.23,NNW,336,0.0,1.0,59,0.00,,---,0.04,VWS V14.00,2013-06-11 00:33:00,
2013-06-10 19:38:00,76.5,62.0,29.23,NNW,336,0.0,1.0,61,0.00,,---,0.04,VWS V14.00,2013-06-11 00:38:00,
2013-06-10 19:43:00,76.1,62.2,29.23,NNW,336,0.0,1.0,62,0.00,,---,0.04,VWS V14.00,2013-06-11 00:43:00,
2013-06-10 19:48:00,75.7,62.3,29.23,NNW,336,0.0,1.0,63,0.00,,---,0.04,VWS V14.00,2013-06-11 00:48:00,
2013-06-10 19:53:00,75.4,61.9,29.23,NNW,335,0.0,1.0,63,0.00,,---,0.04,VWS V14.00,2013-06-11 00:53:00,
2013-06-10 19:58:00,75.0,62.5,29.23,NNW,335,0.0,1.0,65,0.00,,---,0.04,VWS V14.00,2013-06-11 00:58:00,
2013-06-10 20:03:00,74.5,62.4,29.23,NNW,336,0.0,1.0,66,0.00,,---,0.04,VWS V14.00,2013-06-11 01:03:00,
2013-06-10 20:08:00,74.1,62.9,29.23,NNW,336,0.0,1.0,68,0.00,,---,0.04,VWS V14.00,2013-06-11 01:08:00,
2013-06-10 20:13:00,73.9,62.7,29.23,NNW,336,0.0,1.0,68,0.00,,---,0.04,VWS V14.00,2013-06-11 01:13:00,
2013-06-10 20:18:00,73.8,63.0,29.23,NNW,336,0.0,1.0,69,0.00,,---,0.04,VWS V14.00,2013-06-11 01:18:00,
2013-06-10 20:23:00,73.6,62.8,29.23,North,357,0.0,1.0,69,0.00,,---,0.04,VWS V14.00,2013-06-11 01:23:00,
2013-06-10 20:28:00,73.8,63.0,29.23,North,357,0.0,1.0,69,0.00,,---,0.04,VWS V14.00,2013-06-11 01:28:00,
2013-06-10 20:33:00,73.6,62.8,29.23,North,5,0.0,1.0,69,0.00,,---,0.04,VWS V14.00,2013-06-11 01:33:00,
2013-06-10 20:38:00,73.4,62.6,29.23,North,5,0.0,1.0,69,0.00,,---,0.04,VWS V14.00,2013-06-11 01:38:00,
2013-06-10 20:43:00,73.0,62.7,29.23,North,5,0.0,1.0,70,0.00,,---,0.04,VWS V14.00,2013-06-11 01:43:00,
2013-06-10 20:48:00,72.9,62.5,29.23,North,10,4.7,6.6,70,0.00,,---,0.04,VWS V14.00,2013-06-11 01:48:00,
2013-06-10 20:53:00,73.0,62.7,29.23,North,10,4.0,7.4,70,0.00,,---,0.04,VWS V14.00,2013-06-11 01:53:00,
2013-06-10 20:58:00,72.9,62.5,29.23,North,10,4.7,6.6,70,0.00,,---,0.04,VWS V14.00,2013-06-11 01:58:00,
2013-06-10 21:03:00,72.9,62.5,29.23,North,10,3.4,6.6,70,0.00,,---,0.04,VWS V14.00,2013-06-11 02:03:00,
2013-06-10 21:08:00,72.5,62.2,29.23,North,10,4.0,5.8,70,0.00,,---,0.04,VWS V14.00,2013-06-11 02:08:00,
2013-06-10 21:13:00,72.5,62.2,29.23,North,10,4.0,5.8,70,0.00,,---,0.04,VWS V14.00,2013-06-11 02:13:00,
2013-06-10 21:18:00,72.1,62.2,29.23,North,10,5.4,7.4,71,0.00,,---,0.04,VWS V14.00,2013-06-11 02:18:00,
2013-06-10 21:23:00,72.1,62.2,29.26,NNE,15,8.1,10.7,71,0.00,,---,0.04,VWS V14.00,2013-06-11 02:23:00,
2013-06-10 21:28:00,72.3,62.0,29.26,NNE,18,7.4,9.9,70,0.00,,---,0.04,VWS V14.00,2013-06-11 02:28:00,
2013-06-10 21:33:00,72.1,61.8,29.26,NNE,18,4.0,5.8,70,0.00,,---,0.04,VWS V14.00,2013-06-11 02:33:00,
2013-06-10 21:38:00,72.1,61.8,29.26,NNE,18,4.7,6.6,70,0.00,,---,0.04,VWS V14.00,2013-06-11 02:38:00,
2013-06-10 21:43:00,72.1,61.8,29.26,NNE,18,3.4,5.8,70,0.00,,---,0.04,VWS V14.00,2013-06-11 02:43:00,
2013-06-10 21:48:00,71.2,61.0,29.26,NNE,18,0.0,1.0,70,0.00,,---,0.04,VWS V14.00,2013-06-11 02:48:00,
2013-06-10 21:53:00,71.1,61.2,29.26,NNE,18,0.0,1.0,71,0.00,,---,0.04,VWS V14.00,2013-06-11 02:53:00,
2013-06-10 21:58:00,70.0,60.2,29.26,NNE,18,0.0,1.0,71,0.00,,---,0.04,VWS V14.00,2013-06-11 02:58:00,
2013-06-10 22:03:00,69.6,60.2,29.26,NNE,18,0.0,1.0,72,0.00,,---,0.04,VWS V14.00,2013-06-11 03:03:00,
2013-06-10 22:08:00,68.9,59.9,29.26,NNE,18,0.0,1.0,73,0.00,,---,0.04,VWS V14.00,2013-06-11 03:08:00,
2013-06-10 22:13:00,68.7,60.1,29.26,NNE,18,0.0,1.0,74,0.00,,---,0.04,VWS V14.00,2013-06-11 03:13:00,
2013-06-10 22:18:00,68.5,60.3,29.26,NNE,18,0.0,1.0,75,0.00,,---,0.04,VWS V14.00,2013-06-11 03:18:00,
2013-06-10 22:23:00,68.5,60.7,29.26,NNE,18,0.0,1.0,76,0.00,,---,0.04,VWS V14.00,2013-06-11 03:23:00,
2013-06-10 22:28:00,68.5,61.0,29.26,NNE,18,0.0,1.0,77,0.00,,---,0.04,VWS V14.00,2013-06-11 03:28:00,
2013-06-10 22:33:00,68.5,61.4,29.29,NNE,18,0.0,1.0,78,0.00,,---,0.04,VWS V14.00,2013-06-11 03:33:00,
2013-06-10 22:38:00,68.5,61.4,29.29,NNE,18,0.0,1.0,78,0.00,,---,0.04,VWS V14.00,2013-06-11 03:38:00,
2013-06-10 22:43:00,68.5,61.4,29.29,NNE,18,0.0,1.0,78,0.00,,---,0.04,VWS V14.00,2013-06-11 03:43:00,
2013-06-10 22:48:00,68.2,61.4,29.29,NNE,18,0.0,1.0,79,0.00,,---,0.04,VWS V14.00,2013-06-11 03:48:00,
2013-06-10 22:53:00,68.0,61.2,29.29,NNE,18,0.0,1.0,79,0.00,,---,0.04,VWS V14.00,2013-06-11 03:53:00,
2013-06-10 22:58:00,67.8,61.4,29.29,NNE,18,0.0,1.0,80,0.00,,---,0.04,VWS V14.00,2013-06-11 03:58:00,
2013-06-10 23:01:00,67.8,61.4,29.29,NNE,18,0.0,1.0,80,0.00,,---,0.04,VWS V14.00,2013-06-11 04:01:00,
2013-06-10 23:06:00,67.6,61.6,29.26,NNE,18,0.0,1.0,81,0.00,,---,0.04,VWS V14.00,2013-06-11 04:06:00,
2013-06-10 23:11:00,67.6,61.6,29.26,NNE,18,0.0,1.0,81,0.00,,---,0.04,VWS V14.00,2013-06-11 04:11:00,
2013-06-10 23:16:00,67.5,61.4,29.26,NNE,18,0.0,1.0,81,0.00,,---,0.04,VWS V14.00,2013-06-11 04:16:00,
2013-06-10 23:21:00,67.5,61.8,29.26,NNE,18,0.0,1.0,82,0.00,,---,0.04,VWS V14.00,2013-06-11 04:21:00,
2013-06-10 23:26:00,67.5,61.8,29.29,NNE,18,0.0,1.0,82,0.00,,---,0.04,VWS V14.00,2013-06-11 04:26:00,
2013-06-10 23:31:00,67.5,61.8,29.29,NNE,18,0.0,1.0,82,0.00,,---,0.04,VWS V14.00,2013-06-11 04:31:00,
2013-06-10 23:36:00,67.3,62.0,29.29,NNE,18,0.0,1.0,83,0.00,,---,0.04,VWS V14.00,2013-06-11 04:36:00,
2013-06-10 23:41:00,67.1,61.8,29.29,NNE,18,0.0,1.0,83,0.00,,---,0.04,VWS V14.00,2013-06-11 04:41:00,
2013-06-10 23:46:00,66.9,61.6,29.29,NNE,18,0.0,1.0,83,0.00,,---,0.04,VWS V14.00,2013-06-11 04:46:00,
2013-06-10 23:52:00,66.9,61.6,29.29,NNE,18,0.0,1.0,83,0.00,,---,0.04,VWS V14.00,2013-06-11 04:52:00,
2013-06-10 23:57:00,66.9,61.9,29.29,NNE,18,0.0,1.0,84,0.00,,---,0.04,VWS V14.00,2013-06-11 04:57:00,